If you wish to contribute or participate in the discussions about articles you are invited to join SKYbrary as a registered user

 Actions

Konorak Airport

From SKYbrary Wiki

OIZC
Airport
ICAO: OIZC – IATA: ZBR
Summary
Name Konorak Airport
Region Middle East
Territory Iran IR.gif
Location Konorak, Baluchistan
Serving Chabahar
Elevation 13.106 m
43 ft13.106 m
Coordinates 25° 26' 12.26" N, 60° 22' 46.68" E
Runways
Designator Length Width Surface ROPS
09L/27R 3814 m12,513.123 ft
46 m150.919 ft
ASP /
09R/27L 3000 m9,842.52 ft
46 m150.919 ft
ASP /


METAR
Observation OIZC 252150Z 00000KT 6000 NSC 23/14 Q1007 A2976
Station Chahbahar
Date/Time 25 April 2019 21:50:00
Wind direction
Wind speed 00 kts
Lowest cloud amount nil significant cloud
Temperature 23°C
Dew point 14°C
Humidity 56%
QNH 1007 hPa
Weather condition n/a

Airport serving Chabahar, Sistan and the Baluchistan province in Iran.

Climatology

Hot desert climate (Köppen climate classification BWh).

Maps

Terrain

Loading map...

Airport Layout

Loading map...


Accidents & Serious Incidents at or in vicinity of OIZC

None on SKYbrary